Time;durP1;ratioP1;P1;durP2;ratioP2;P2;SDS_P1;SDS_P2;PMS_P1;PMS_P2;Temp;Humidity;BMP_temperature;BMP_pressure;BME280_temperature;BME280_humidity;BME280_pressure;Samples;Min_cycle;Max_cycle;Signal;HPM_P1;HPM_P2
2022/05/03 00:01:34;;;;;;;6.57;5.17;;;;;;;11.95;44.59;100265.40;1664511;84;21136;-70
2022/05/03 00:04:38;;;;;;;9.10;5.93;;;;;;;11.87;45.09;100255.68;1678807;84;21142;-70
2022/05/03 00:07:22;;;;;;;6.07;4.50;;;;;;;11.83;45.07;100259.26;1679625;84;21620;-71
2022/05/03 00:10:06;;;;;;;5.97;5.37;;;;;;;11.78;44.91;100256.34;1679370;84;21071;-70
2022/05/03 00:12:40;;;;;;;5.80;5.30;;;;;;;11.76;44.92;100255.72;1679718;84;21015;-69
2022/05/03 00:15:08;;;;;;;6.63;4.93;;;;;;;11.73;44.73;100253.95;1678484;84;21035;-70
2022/05/03 00:17:35;;;;;;;6.20;5.07;;;;;;;11.73;44.68;100257.45;1678518;84;21066;-70
2022/05/03 00:20:04;;;;;;;4.97;4.47;;;;;;;11.73;44.47;100253.44;1692737;84;21589;-70
2022/05/03 00:22:32;;;;;;;10.47;4.33;;;;;;;11.72;44.23;100252.33;1689595;82;21034;-69
2022/05/03 00:24:58;;;;;;;5.50;4.83;;;;;;;11.71;44.18;100252.00;1665605;85;21026;-69
2022/05/03 00:27:27;;;;;;;5.87;5.17;;;;;;;11.68;44.17;100255.38;1685155;85;21161;-69
2022/05/03 00:29:57;;;;;;;7.17;5.60;;;;;;;11.70;44.02;100247.18;1664521;85;21113;-70
2022/05/03 00:32:28;;;;;;;5.27;4.67;;;;;;;11.71;43.88;100252.00;1664823;85;21046;-70
2022/05/03 00:35:00;;;;;;;5.23;4.40;;;;;;;11.71;43.64;100250.66;1664203;85;21121;-70
2022/05/03 00:37:28;;;;;;;4.40;4.00;;;;;;;11.70;43.57;100251.19;1664449;85;21074;-69
2022/05/03 00:39:55;;;;;;;6.87;5.00;;;;;;;11.69;43.57;100250.86;1664739;85;21234;-69
2022/05/03 00:42:25;;;;;;;4.70;4.30;;;;;;;11.69;43.65;100244.19;1688987;85;21950;-69
2022/05/03 00:45:22;;;;;;;6.60;4.90;;;;;;;11.68;43.95;100247.89;1682749;85;21034;-70
2022/05/03 00:48:34;;;;;;;4.90;4.27;;;;;;;11.67;43.99;100244.89;1671326;85;21041;-70
2022/05/03 00:51:10;;;;;;;5.57;4.33;;;;;;;11.61;43.77;100242.50;1690366;85;21074;-70
2022/05/03 00:54:12;;;;;;;5.40;4.10;;;;;;;11.58;43.90;100242.07;1664760;85;21549;-71
2022/05/03 00:56:56;;;;;;;4.23;3.70;;;;;;;11.57;43.68;100237.77;1647038;85;21407;-70
2022/05/03 01:00:05;;;;;;;6.13;4.03;;;;;;;11.54;43.65;100230.95;1636188;85;21074;-70
2022/05/03 01:02:46;;;;;;;7.30;4.23;;;;;;;11.54;43.45;100237.63;1664227;85;21153;-70
2022/05/03 01:05:18;;;;;;;4.60;4.20;;;;;;;11.52;43.38;100231.67;1665387;85;21136;-71
2022/05/03 01:08:05;;;;;;;5.47;3.93;;;;;;;11.57;43.38;100231.09;1647176;85;21145;-71
2022/05/03 01:11:11;;;;;;;8.87;4.27;;;;;;;11.59;43.32;100227.20;1664440;85;21491;-70
2022/05/03 01:13:42;;;;;;;4.60;4.07;;;;;;;11.61;43.18;100229.67;1664365;85;21059;-71
2022/05/03 01:16:16;;;;;;;5.27;3.40;;;;;;;11.59;43.10;100225.05;1664760;85;21046;-70
2022/05/03 01:19:16;;;;;;;5.90;3.57;;;;;;;11.60;42.96;100221.34;1664160;85;21610;-70
2022/05/03 01:22:15;;;;;;;3.77;3.43;;;;;;;11.63;42.93;100223.63;1665830;85;21097;-69
2022/05/03 01:25:08;;;;;;;7.22;3.92;;;;;;;11.64;42.76;100219.42;1665517;85;21093;-70
2022/05/03 01:28:23;;;;;;;5.93;3.80;;;;;;;11.64;42.71;100222.59;1665203;85;21137;-71
2022/05/03 01:30:50;;;;;;;4.50;4.10;;;;;;;11.65;42.83;100214.91;1649203;85;21046;-70
2022/05/03 01:33:36;;;;;;;3.77;3.40;;;;;;;11.66;42.73;100220.05;1664307;85;21082;-69
2022/05/03 01:36:06;;;;;;;4.27;3.83;;;;;;;11.68;42.68;100214.00;1647494;85;21565;-70
2022/05/03 01:39:04;;;;;;;4.47;3.80;;;;;;;11.71;42.54;100220.77;1666035;85;21037;-69
2022/05/03 01:41:57;;;;;;;;;;;;;;;11.74;42.58;100216.91;1653970;85;21110;-71
2022/05/03 01:44:52;;;;;;;5.13;3.63;;;;;;;11.76;42.43;100213.00;1664761;85;20145;-68
2022/05/03 01:50:31;;;;;;;4.50;3.40;;;;;;;11.81;42.50;100215.91;1787328;79;23460;-69
2022/05/03 01:53:24;;;;;;;3.90;3.60;;;;;;;11.78;42.59;100208.80;1720196;81;21014;-69
2022/05/03 01:56:09;;;;;;;4.07;3.63;;;;;;;11.82;43.21;100215.38;1740376;81;21054;-69
2022/05/03 01:58:50;;;;;;;7.77;3.67;;;;;;;11.84;43.32;100210.15;1700219;83;21040;-70
2022/05/03 02:01:41;;;;;;;4.30;3.10;;;;;;;11.84;43.23;100212.81;1685693;83;21068;-69
2022/05/03 02:04:48;;;;;;;4.60;3.30;;;;;;;11.85;43.33;100207.80;1686861;83;21025;-68
2022/05/03 02:07:45;;;;;;;5.55;3.10;;;;;;;11.90;43.64;100200.54;1690779;83;21119;-69
2022/05/03 02:10:25;;;;;;;5.30;3.67;;;;;;;11.90;43.72;100211.75;1709080;83;21108;-70
2022/05/03 02:12:54;;;;;;;3.33;3.03;;;;;;;11.86;43.23;100212.63;1702308;83;21104;-70
2022/05/03 02:15:39;;;;;;;3.90;3.60;;;;;;;11.86;43.18;100204.61;1701603;83;21026;-70
2022/05/03 02:18:30;;;;;;;7.80;3.80;;;;;;;11.90;43.48;100201.06;1703202;83;21091;-70
2022/05/03 02:21:13;;;;;;;8.03;3.70;;;;;;;11.90;43.79;100206.41;1700699;83;21044;-70
2022/05/03 02:24:02;;;;;;;5.40;4.03;;;;;;;11.88;43.37;100206.08;1723160;81;21033;-70
2022/05/03 02:27:04;;;;;;;5.65;4.00;;;;;;;11.84;43.18;100204.80;1719053;81;21076;-70
2022/05/03 02:29:42;;;;;;;6.60;4.20;;;;;;;11.82;43.28;100204.19;1731302;81;21014;-71
2022/05/03 02:32:22;;;;;;;6.83;4.10;;;;;;;11.80;43.29;100210.76;1731344;81;21042;-70
2022/05/03 02:34:56;;;;;;;3.47;3.17;;;;;;;11.78;43.43;100210.14;1731376;81;21051;-70
2022/05/03 02:37:27;;;;;;;4.33;3.73;;;;;;;11.77;43.66;100206.66;1733158;81;21591;-69
2022/05/03 02:40:14;;;;;;;5.37;3.17;;;;;;;11.76;43.68;100209.52;1740121;81;21105;-70
2022/05/03 02:42:39;;;;;;;4.77;3.37;;;;;;;11.77;43.63;100211.14;1742584;81;21093;-70
2022/05/03 02:45:07;;;;;;;4.23;3.70;;;;;;;11.74;43.77;100208.89;1729569;81;21526;-69
2022/05/03 02:47:48;;;;;;;4.77;4.37;;;;;;;11.73;44.04;100204.04;1724478;82;21021;-70
2022/05/03 02:50:27;;;;;;;4.33;3.30;;;;;;;11.73;44.31;100210.72;1716316;83;21088;-68
2022/05/03 02:53:05;;;;;;;3.73;3.43;;;;;;;11.72;44.53;100203.75;1712450;83;21019;-70
2022/05/03 02:55:54;;;;;;;5.20;3.60;;;;;;;11.69;44.42;100214.30;1706379;83;21052;-70
2022/05/03 02:59:16;;;;;;;6.23;3.93;;;;;;;11.69;44.69;100216.15;1667150;86;21015;-70
2022/05/03 03:02:12;;;;;;;5.10;3.60;;;;;;;11.66;44.73;100214.70;1669580;85;21541;-71
2022/05/03 03:04:43;;;;;;;5.13;4.13;;;;;;;11.64;44.95;100220.77;1664766;85;21554;-70
2022/05/03 03:07:17;;;;;;;5.77;2.83;;;;;;;11.61;44.89;100217.66;1640066;85;21097;-70
2022/05/03 03:09:50;;;;;;;3.47;3.03;;;;;;;11.60;45.39;100216.84;1636375;85;21072;-71
2022/05/03 03:12:36;;;;;;;3.70;3.10;;;;;;;11.61;45.20;100227.00;1666421;84;21120;-68
2022/05/03 03:15:09;;;;;;;4.97;3.13;;;;;;;11.61;45.03;100215.80;1684406;84;21011;-70
2022/05/03 03:17:43;;;;;;;6.73;3.17;;;;;;;11.59;44.98;100213.84;1654573;84;21132;-70
2022/05/03 03:20:12;;;;;;;2.80;2.60;;;;;;;11.55;44.94;100209.93;1650246;85;21013;-70
2022/05/03 03:22:47;;;;;;;8.47;3.60;;;;;;;11.48;44.96;100200.54;1676587;85;21046;-69
2022/05/03 03:25:19;;;;;;;4.00;3.60;;;;;;;11.54;45.17;100216.80;1679071;85;21518;-71
2022/05/03 03:27:51;;;;;;;3.07;2.87;;;;;;;11.53;45.31;100212.47;1681142;85;21025;-70
2022/05/03 03:30:18;;;;;;;3.30;2.67;;;;;;;11.49;45.36;100211.55;1627635;86;21116;-70
2022/05/03 03:32:56;;;;;;;3.90;3.07;;;;;;;11.45;45.27;100216.97;1677714;85;21516;-70
2022/05/03 03:35:22;;;;;;;3.37;3.07;;;;;;;11.46;45.37;100217.27;1665832;85;21081;-70
2022/05/03 03:37:50;;;;;;;9.97;3.63;;;;;;;11.47;45.43;100226.94;1678907;85;21625;-70
2022/05/03 03:40:20;;;;;;;7.37;3.73;;;;;;;11.51;45.44;100224.70;1678697;85;21081;-69
2022/05/03 03:42:50;;;;;;;5.20;3.37;;;;;;;11.54;45.40;100224.80;1633826;86;22161;-70
2022/05/03 03:45:17;;;;;;;7.50;3.80;;;;;;;11.60;45.75;100226.19;1635983;86;21044;-71
2022/05/03 03:47:46;;;;;;;6.83;3.17;;;;;;;11.68;45.53;100214.52;1617627;86;21058;-70
2022/05/03 03:50:15;;;;;;;5.23;2.93;;;;;;;11.77;46.34;100219.16;1645335;86;21094;-70
2022/05/03 03:52:46;;;;;;;3.47;3.00;;;;;;;11.83;46.05;100211.19;1635032;86;21065;-71
2022/05/03 03:55:13;;;;;;;3.43;3.13;;;;;;;11.90;46.09;100226.44;1647772;86;21076;-70
2022/05/03 03:57:41;;;;;;;2.72;2.52;;;;;;;11.97;46.08;100225.95;1686713;85;21043;-70
2022/05/03 04:00:11;;;;;;;5.25;2.27;;;;;;;12.11;46.64;100214.79;1666184;84;21049;-68
2022/05/03 04:02:41;;;;;;;2.95;2.37;;;;;;;12.31;47.11;100217.52;1642257;86;21043;-70
2022/05/03 04:05:18;;;;;;;2.75;2.00;;;;;;;12.45;47.53;100211.16;1645736;85;21221;-70
2022/05/03 04:07:44;;;;;;;2.95;2.72;;;;;;;12.52;47.03;100206.64;1665052;85;21032;-70
2022/05/03 04:10:11;;;;;;;4.03;2.90;;;;;;;12.55;46.14;100204.09;1665739;85;21049;-69
2022/05/03 04:12:39;;;;;;;3.23;2.37;;;;;;;12.57;46.06;100198.84;1644549;86;21066;-70
2022/05/03 04:15:08;;;;;;;3.25;2.12;;;;;;;12.61;46.02;100200.07;1633484;87;21323;-70
2022/05/03 04:17:34;;;;;;;3.58;2.02;;;;;;;12.64;46.37;100201.01;1673276;84;21109;-71
2022/05/03 04:20:00;;;;;;;1.82;1.72;;;;;;;12.69;45.87;100208.41;1672248;84;21043;-70
2022/05/03 04:22:33;;;;;;;2.30;2.20;;;;;;;12.76;45.74;100197.72;1664611;85;21051;-70
2022/05/03 04:25:01;;;;;;;3.00;2.35;;;;;;;12.83;45.33;100202.55;1642086;86;21275;-70
2022/05/03 04:27:28;;;;;;;7.65;1.65;;;;;;;12.91;44.81;100205.53;1644480;86;21035;-71
2022/05/03 04:29:58;;;;;;;2.83;2.45;;;;;;;13.00;44.75;100206.45;1669293;86;21085;-70
2022/05/03 04:32:29;;;;;;;4.45;1.98;;;;;;;13.06;45.19;100210.15;1666903;86;21962;-70
2022/05/03 04:34:56;;;;;;;3.83;2.17;;;;;;;12.81;44.52;100153.80;1636283;85;21061;-71
2022/05/03 04:37:22;;;;;;;5.85;2.25;;;;;;;13.22;44.77;100204.86;1643999;85;21043;-71
2022/05/03 04:39:48;;;;;;;3.12;2.00;;;;;;;13.29;45.56;100204.34;1652678;87;21051;-70
2022/05/03 04:42:14;;;;;;;4.30;2.50;;;;;;;13.36;46.18;100207.05;1648892;85;21040;-70
2022/05/03 04:44:41;;;;;;;3.87;2.77;;;;;;;13.41;44.79;100204.53;1653783;85;21217;-71
2022/05/03 04:47:07;;;;;;;3.55;2.58;;;;;;;13.49;43.84;100203.52;1655045;85;21119;-70
2022/05/03 04:49:34;;;;;;;;;;;;;;;13.53;43.57;100204.73;1656866;85;21217;-70
2022/05/03 04:52:00;;;;;;;3.60;2.02;;;;;;;13.56;43.42;100210.98;1650198;85;20141;-71
2022/05/03 04:54:26;;;;;;;4.62;2.83;;;;;;;13.53;43.95;100203.39;1655378;85;21190;-68
2022/05/03 04:56:58;;;;;;;;;;;;;;;13.56;43.36;100200.27;1641782;85;21027;-71
2022/05/03 04:59:24;;;;;;;7.08;3.00;;;;;;;13.59;42.81;100203.88;1632145;86;20176;-73
2022/05/03 05:01:50;;;;;;;2.50;1.92;;;;;;;13.58;42.73;100198.20;1662232;86;21020;-71
2022/05/03 05:04:16;;;;;;;3.60;2.25;;;;;;;13.61;42.62;100192.44;1671380;84;21106;-72
2022/05/03 05:06:42;;;;;;;6.12;2.45;;;;;;;13.68;42.18;100198.59;1671586;84;21055;-71
2022/05/03 05:09:09;;;;;;;2.75;1.87;;;;;;;13.97;42.31;100196.39;1670543;84;21077;-73
2022/05/03 05:11:35;;;;;;;9.13;2.60;;;;;;;14.58;40.55;100197.19;1668251;84;21018;-71
2022/05/03 05:14:02;;;;;;;5.08;2.45;;;;;;;14.85;39.97;100190.25;1655723;85;21069;-71
2022/05/03 05:16:29;;;;;;;7.72;3.02;;;;;;;14.90;40.12;100189.08;1657975;86;21074;-71
2022/05/03 05:18:55;;;;;;;2.72;2.52;;;;;;;14.91;39.48;100194.73;1647716;85;21547;-71
2022/05/03 05:21:21;;;;;;;3.58;2.52;;;;;;;14.90;39.82;100191.77;1657181;85;22091;-70
2022/05/03 05:23:49;;;;;;;5.30;3.10;;;;;;;14.90;39.47;100194.45;1666470;86;21013;-72
2022/05/03 05:26:15;;;;;;;3.17;2.77;;;;;;;14.92;39.68;100193.70;1668400;84;21165;-71
2022/05/03 05:28:41;;;;;;;5.15;3.17;;;;;;;14.97;39.58;100195.71;1668742;84;21028;-71
2022/05/03 05:31:07;;;;;;;2.92;2.75;;;;;;;15.08;39.74;100191.48;1668613;84;21528;-72
2022/05/03 05:33:33;;;;;;;;;;;;;;;15.24;39.79;100193.61;1670154;84;21463;-70
2022/05/03 05:35:59;;;;;;;8.13;3.37;;;;;;;15.55;39.29;100189.13;1685539;85;20144;-72
2022/05/03 05:38:26;;;;;;;2.72;2.42;;;;;;;15.88;38.84;100189.25;1685375;84;21098;-71
2022/05/03 05:40:52;;;;;;;5.42;3.25;;;;;;;16.32;38.49;100188.55;1685471;84;21162;-70
2022/05/03 05:43:18;;;;;;;11.88;3.08;;;;;;;16.80;38.07;100186.25;1685648;84;21027;-72
2022/05/03 05:45:44;;;;;;;;;;;;;;;17.20;36.67;100184.22;1688006;84;20979;-72
2022/05/03 05:48:14;;;;;;;2.12;2.02;;;;;;;17.42;36.62;100182.24;1685505;84;20102;-72
2022/05/03 05:50:40;;;;;;;6.50;2.65;;;;;;;17.60;36.70;100182.09;1685104;84;21114;-72
2022/05/03 05:55:51;;;;;;;4.22;2.27;;;;;;;17.84;35.60;100184.73;1685507;84;21115;-71
2022/05/03 05:58:17;;;;;;;3.87;2.33;;;;;;;17.75;35.09;100180.23;1685583;84;21042;-76
2022/05/03 06:00:44;;;;;;;2.37;1.72;;;;;;;17.67;35.60;100182.78;1685573;84;21094;-71
2022/05/03 06:03:11;;;;;;;2.80;2.17;;;;;;;17.58;35.84;100177.47;1685303;84;21170;-72
2022/05/03 06:05:37;;;;;;;7.37;2.83;;;;;;;17.54;36.27;100177.66;1685823;84;21027;-71
2022/05/03 06:08:06;;;;;;;3.62;1.80;;;;;;;17.52;36.53;100187.86;1685358;84;21114;-70
2022/05/03 06:10:33;;;;;;;6.00;2.60;;;;;;;17.53;36.31;100184.09;1685705;85;21070;-71
2022/05/03 06:13:02;;;;;;;6.15;2.75;;;;;;;17.71;36.40;100175.03;1685743;84;21022;-73
2022/05/03 06:15:30;;;;;;;3.65;2.33;;;;;;;17.71;36.40;100175.03;1685675;84;21185;-71
2022/05/03 06:17:56;;;;;;;3.90;1.92;;;;;;;17.80;36.47;100172.76;1685190;84;21082;-72
2022/05/03 06:20:22;;;;;;;3.90;1.30;;;;;;;17.92;35.88;100169.53;1685405;84;21192;-71
2022/05/03 06:22:49;;;;;;;2.85;1.42;;;;;;;18.03;35.15;100172.70;1685546;84;21017;-72
2022/05/03 06:25:15;;;;;;;3.12;1.50;;;;;;;18.15;35.11;100166.44;1665912;85;21131;-72
2022/05/03 06:27:41;;;;;;;;;;;;;;;18.15;35.11;100166.44;1688404;85;21074;-72
2022/05/03 06:30:10;;;;;;;2.30;1.70;;;;;;;18.23;35.01;100174.12;1685477;84;20132;-71
2022/05/03 06:32:37;;;;;;;3.50;1.12;;;;;;;18.33;34.73;100168.92;1685632;84;21030;-72
2022/05/03 06:35:07;;;;;;;7.30;1.67;;;;;;;18.33;34.73;100168.92;1685869;84;21007;-73
2022/05/03 06:37:37;;;;;;;5.40;2.33;;;;;;;18.39;34.58;100178.73;1685807;84;21066;-73
2022/05/03 06:40:08;;;;;;;7.17;2.42;;;;;;;18.32;35.96;100178.06;1685996;84;21046;-71
2022/05/03 06:42:37;;;;;;;7.42;2.27;;;;;;;18.20;36.31;100182.19;1685894;85;21146;-70
2022/05/03 06:45:06;;;;;;;5.47;2.52;;;;;;;18.08;36.81;100184.95;1685736;84;21085;-73
2022/05/03 06:47:33;;;;;;;3.95;2.10;;;;;;;17.99;37.12;100181.50;1693180;84;21554;-72
2022/05/03 06:49:59;;;;;;;5.17;2.47;;;;;;;18.04;36.65;100184.30;1685804;84;21106;-73
2022/05/03 06:52:25;;;;;;;4.87;2.62;;;;;;;18.04;36.65;100184.30;1685770;84;21153;-71
2022/05/03 06:54:52;;;;;;;2.65;2.40;;;;;;;18.02;36.74;100188.59;1685605;85;21102;-73
2022/05/03 06:57:19;;;;;;;2.77;2.42;;;;;;;18.02;36.74;100188.59;1685909;84;21246;-72
2022/05/03 06:59:47;;;;;;;2.58;2.20;;;;;;;18.03;36.86;100190.23;1685805;84;21537;-72
2022/05/03 07:02:13;;;;;;;5.92;2.50;;;;;;;18.10;37.02;100180.63;1686109;84;21015;-71
2022/05/03 07:04:43;;;;;;;4.40;1.85;;;;;;;18.40;35.86;100179.03;1685995;85;21134;-72
2022/05/03 07:07:08;;;;;;;6.90;2.25;;;;;;;18.40;35.86;100179.03;1685513;85;21094;-72
2022/05/03 07:09:34;;;;;;;4.42;1.30;;;;;;;18.60;35.58;100177.73;1685867;84;21055;-73
2022/05/03 07:12:02;;;;;;;4.33;1.67;;;;;;;18.78;35.33;100176.64;1685933;84;21562;-73
2022/05/03 07:14:30;;;;;;;3.77;2.17;;;;;;;18.93;34.14;100175.58;1685978;84;21019;-73
2022/05/03 07:16:56;;;;;;;2.77;1.55;;;;;;;19.04;34.59;100181.41;1685805;84;21549;-71
2022/05/03 07:24:52;;;;;;;3.00;1.05;;;;;;;19.43;30.49;100170.56;1658084;85;21028;-72
2022/05/03 07:27:18;;;;;;;;;;;;;;;19.48;31.14;100174.39;1686617;85;21063;-72
2022/05/03 07:29:45;;;;;;;4.83;1.37;;;;;;;19.43;30.15;100173.27;1685515;84;20102;-71
2022/05/03 07:32:11;;;;;;;2.95;1.60;;;;;;;19.35;30.75;100168.85;1625683;85;21055;-71
2022/05/03 07:34:37;;;;;;;8.65;1.20;;;;;;;19.36;31.39;100178.58;1632093;87;21710;-71
2022/05/03 07:37:04;;;;;;;9.48;1.02;;;;;;;19.33;30.99;100170.99;1622641;87;21079;-72
2022/05/03 07:39:30;;;;;;;6.55;1.35;;;;;;;19.27;30.48;100166.05;1656545;86;20992;-73
2022/05/03 07:41:57;;;;;;;;;;;;;;;19.23;30.21;100175.70;1659018;86;21591;-74
2022/05/03 07:44:24;;;;;;;3.17;0.70;;;;;;;19.29;30.37;100168.48;1656653;86;20461;-72
2022/05/03 07:46:50;;;;;;;;;;;;;;;19.39;29.82;100163.22;1658931;86;21051;-71
2022/05/03 07:49:16;;;;;;;3.42;1.07;;;;;;;19.53;29.49;100165.81;1656488;86;20137;-72
2022/05/03 07:51:42;;;;;;;3.10;0.75;;;;;;;19.61;29.48;100165.39;1656592;86;21063;-71
2022/05/03 07:54:09;;;;;;;2.67;1.32;;;;;;;19.58;29.35;100161.83;1648721;86;21098;-71
2022/05/03 07:56:36;;;;;;;1.17;0.90;;;;;;;19.50;29.08;100165.53;1664689;84;21112;-73
2022/05/03 07:59:03;;;;;;;2.72;0.50;;;;;;;19.38;29.24;100160.23;1688030;84;21029;-72
2022/05/03 08:01:31;;;;;;;2.98;0.60;;;;;;;19.35;29.51;100167.50;1666764;84;21043;-71
2022/05/03 08:03:57;;;;;;;;;;;;;;;19.39;29.78;100164.58;1658356;86;21086;-73
2022/05/03 08:06:24;;;;;;;1.90;0.53;;;;;;;19.43;29.19;100162.45;1656911;85;20213;-72
2022/05/03 08:08:52;;;;;;;1.27;0.30;;;;;;;19.46;29.25;100165.21;1637324;85;22221;-72
2022/05/03 08:11:18;;;;;;;2.40;0.78;;;;;;;19.61;29.62;100160.53;1656438;85;21560;-71
2022/05/03 08:13:45;;;;;;;0.93;0.37;;;;;;;19.78;29.16;100154.53;1657764;85;21596;-73
2022/05/03 08:16:19;;;;;;;1.65;0.60;;;;;;;19.90;28.63;100155.73;1657097;85;21075;-72
2022/05/03 08:18:47;;;;;;;2.22;0.40;;;;;;;19.96;28.67;100149.84;1668788;85;21086;-73
2022/05/03 08:21:16;;;;;;;0.62;0.20;;;;;;;19.92;28.75;100146.82;1674707;84;21042;-71
2022/05/03 08:23:42;;;;;;;1.62;0.33;;;;;;;19.82;28.31;100151.59;1657780;84;21022;-72
2022/05/03 08:26:08;;;;;;;0.95;0.23;;;;;;;19.75;28.98;100155.57;1657300;85;21086;-71
2022/05/03 08:28:36;;;;;;;1.98;0.47;;;;;;;19.73;28.92;100148.25;1657782;85;21538;-71
2022/05/03 08:31:03;;;;;;;6.10;0.55;;;;;;;19.79;28.32;100142.63;1657497;85;21134;-71
2022/05/03 08:33:30;;;;;;;2.22;0.47;;;;;;;19.86;28.35;100147.84;1657153;85;21122;-72
2022/05/03 08:35:56;;;;;;;0.85;0.50;;;;;;;19.93;28.47;100144.41;1657874;85;21591;-74
2022/05/03 08:43:52;;;;;;;1.77;0.70;;;;;;;20.13;28.76;100134.30;1657464;85;21098;-71
2022/05/03 08:46:21;;;;;;;7.30;0.62;;;;;;;20.25;29.30;100128.75;1653644;85;21112;-72
2022/05/03 08:48:56;;;;;;;1.45;0.60;;;;;;;20.30;28.40;100126.06;1605722;87;21024;-71
2022/05/03 08:51:23;;;;;;;2.98;0.95;;;;;;;20.27;28.87;100121.19;1585754;88;21557;-72
2022/05/03 08:53:50;;;;;;;2.30;0.60;;;;;;;20.25;29.10;100113.02;1658045;86;21006;-72
2022/05/03 08:56:20;;;;;;;0.78;0.60;;;;;;;20.29;28.68;100111.46;1633309;85;21050;-71
2022/05/03 08:58:47;;;;;;;1.05;0.40;;;;;;;20.35;28.93;100105.00;1638173;86;21520;-71
2022/05/03 09:01:15;;;;;;;3.22;0.20;;;;;;;20.47;28.41;100107.52;1599473;87;21043;-72
2022/05/03 09:03:41;;;;;;;1.50;0.40;;;;;;;20.63;28.15;100097.11;1656804;85;21541;-73
2022/05/03 09:06:08;;;;;;;4.15;0.40;;;;;;;20.73;26.93;100102.58;1657620;86;21580;-70
2022/05/03 09:08:35;;;;;;;1.07;0.40;;;;;;;20.80;27.15;100099.11;1657355;85;21131;-72
2022/05/03 09:11:19;;;;;;;2.80;0.23;;;;;;;20.88;26.89;100097.80;1657047;86;21108;-73
2022/05/03 09:13:47;;;;;;;1.07;0.33;;;;;;;20.90;26.66;100090.22;1623725;87;21146;-73
2022/05/03 09:16:18;;;;;;;5.37;0.40;;;;;;;20.93;26.96;100086.19;1623271;87;21127;-73
2022/05/03 09:18:47;;;;;;;2.58;0.40;;;;;;;20.97;26.60;100091.35;1657304;86;21124;-73
2022/05/03 09:24:13;;;;;;;0.68;0.30;;;;;;;20.92;26.88;100073.70;1657990;84;21012;-73
2022/05/03 09:26:40;;;;;;;3.50;0.40;;;;;;;20.87;26.69;100080.45;1658180;85;21030;-74
2022/05/03 09:29:10;;;;;;;0.40;0.30;;;;;;;20.83;27.02;100076.64;1656576;85;21091;-71
2022/05/03 09:31:46;;;;;;;1.57;0.53;;;;;;;20.74;26.99;100073.63;1657250;86;21053;-73
2022/05/03 09:34:27;;;;;;;0.80;0.20;;;;;;;20.67;27.66;100072.49;1657026;85;21120;-72
2022/05/03 09:37:05;;;;;;;1.12;0.40;;;;;;;20.64;27.11;100068.94;1623971;87;21070;-74
2022/05/03 09:39:38;;;;;;;0.50;0.20;;;;;;;20.56;27.46;100053.97;1652229;85;21087;-72
2022/05/03 09:42:09;;;;;;;0.95;0.37;;;;;;;20.60;27.66;100048.34;1612181;87;21078;-73
2022/05/03 09:44:57;;;;;;;2.58;0.40;;;;;;;20.69;27.29;100047.31;1602573;87;21652;-70
2022/05/03 09:47:34;;;;;;;3.10;0.40;;;;;;;20.73;27.13;100030.81;1601601;88;21086;-72
2022/05/03 09:50:01;;;;;;;1.30;0.42;;;;;;;20.76;27.46;100033.55;1620163;87;21060;-72
2022/05/03 09:52:36;;;;;;;0.55;0.30;;;;;;;20.80;27.29;100034.10;1624076;87;21202;-72
2022/05/03 09:55:07;;;;;;;1.65;0.40;;;;;;;20.76;26.80;100028.14;1625009;87;21200;-72
2022/05/03 09:57:39;;;;;;;4.12;0.20;;;;;;;20.58;27.10;100031.51;1625581;87;21015;-72
2022/05/03 10:00:10;;;;;;;1.15;0.23;;;;;;;20.50;27.36;100029.31;1601251;88;21093;-71
2022/05/03 10:02:43;;;;;;;1.00;0.20;;;;;;;20.43;26.78;100017.34;1627249;86;21042;-71
2022/05/03 10:05:12;;;;;;;2.05;0.20;;;;;;;20.19;26.96;99964.69;1638582;86;21051;-71
2022/05/03 10:07:43;;;;;;;1.15;0.45;;;;;;;20.65;26.50;100006.14;1637785;86;21081;-71
2022/05/03 10:10:11;;;;;;;1.22;0.20;;;;;;;20.82;26.07;100011.37;1620853;86;21575;-72
2022/05/03 10:12:38;;;;;;;1.47;0.20;;;;;;;20.93;25.89;100007.63;1637714;86;21029;-71
2022/05/03 10:15:07;;;;;;;4.35;0.62;;;;;;;21.03;25.42;100005.48;1638379;86;21067;-75
2022/05/03 10:20:43;;;;;;;1.57;0.40;;;;;;;21.03;25.63;100003.58;1637700;86;21105;-74
2022/05/03 10:23:30;;;;;;;1.75;0.30;;;;;;;20.95;26.64;99988.66;1643329;83;21061;-72
2022/05/03 10:26:05;;;;;;;2.17;0.20;;;;;;;20.92;26.36;99983.76;1676409;83;21078;-72
2022/05/03 10:29:05;;;;;;;0.45;0.30;;;;;;;20.93;26.53;99979.98;1690456;83;21602;-74
2022/05/03 10:31:47;;;;;;;2.92;0.30;;;;;;;21.05;26.65;99978.94;1690132;83;21109;-73
2022/05/03 10:34:59;;;;;;;0.90;0.30;;;;;;;21.17;25.96;99979.50;1687577;82;21069;-73
2022/05/03 10:37:33;;;;;;;0.42;0.30;;;;;;;21.26;25.83;99972.47;1689355;83;21098;-73
2022/05/03 10:40:09;;;;;;;2.98;0.42;;;;;;;21.24;25.65;99965.70;1690658;83;21041;-74
2022/05/03 10:42:35;;;;;;;0.50;0.37;;;;;;;21.23;25.54;99958.13;1690459;83;21153;-72
2022/05/03 10:45:11;;;;;;;0.95;0.20;;;;;;;21.18;25.53;99950.77;1677779;83;21054;-73
2022/05/03 10:47:48;;;;;;;2.10;1.20;;;;;;;21.16;25.66;99963.78;1655834;85;21554;-73
2022/05/03 10:50:19;;;;;;;0.93;0.40;;;;;;;21.19;25.31;99956.48;1627784;87;21059;-73
2022/05/03 10:53:05;;;;;;;1.30;0.40;;;;;;;21.28;25.06;99948.62;1635675;87;21104;-73
2022/05/03 10:55:33;;;;;;;0.65;0.40;;;;;;;21.39;24.93;99948.09;1638600;86;21046;-72
2022/05/03 10:58:30;;;;;;;1.75;0.30;;;;;;;21.51;24.96;99944.62;1662798;85;21089;-73
2022/05/03 11:01:18;;;;;;;;;;;;;;;21.57;24.45;99943.54;1674064;84;21075;-74
2022/05/03 11:03:54;;;;;;;3.02;0.55;;;;;;;21.59;24.09;99943.27;1665698;85;20451;-73
2022/05/03 11:06:26;;;;;;;2.80;0.28;;;;;;;21.48;24.45;99937.58;1653358;85;21105;-72
2022/05/03 11:14:22;;;;;;;0.68;0.23;;;;;;;21.79;24.38;99924.80;1636651;87;21050;-71
2022/05/03 11:17:07;;;;;;;4.03;0.60;;;;;;;21.70;24.53;99922.36;1637050;86;21494;-73
2022/05/03 11:19:41;;;;;;;0.42;0.28;;;;;;;21.65;24.76;99921.84;1637182;86;21070;-70
2022/05/03 11:22:10;;;;;;;0.35;0.35;;;;;;;21.65;24.71;99918.32;1637068;87;21129;-72
2022/05/03 11:24:44;;;;;;;0.93;0.35;;;;;;;21.63;24.94;99913.16;1637383;87;21556;-75
2022/05/03 11:27:12;;;;;;;2.50;0.50;;;;;;;21.64;25.29;99906.64;1656455;86;20974;-74
2022/05/03 11:29:46;;;;;;;0.62;0.50;;;;;;;21.66;24.93;99913.98;1637562;86;21599;-72
2022/05/03 11:32:15;;;;;;;0.45;0.20;;;;;;;21.63;24.94;99910.45;1637292;86;21117;-73
2022/05/03 11:34:42;;;;;;;1.27;0.37;;;;;;;21.55;24.89;99910.45;1624787;86;21677;-73
2022/05/03 11:37:09;;;;;;;0.53;0.50;;;;;;;21.44;25.76;99906.12;1606242;86;21377;-72
2022/05/03 11:39:36;;;;;;;1.45;0.40;;;;;;;21.35;25.80;99905.00;1615969;86;21069;-71
2022/05/03 11:42:08;;;;;;;0.60;0.53;;;;;;;21.34;26.09;99908.78;1637122;86;21107;-72
2022/05/03 11:44:43;;;;;;;0.93;0.60;;;;;;;21.33;26.35;99897.68;1651387;85;21059;-73
2022/05/03 11:47:10;;;;;;;1.85;0.47;;;;;;;21.34;25.82;99904.19;1652372;85;21168;-71
2022/05/03 11:49:36;;;;;;;3.02;0.65;;;;;;;21.39;25.88;99896.59;1650854;85;21101;-73
2022/05/03 11:57:43;;;;;;;2.75;0.60;;;;;;;21.43;25.51;99888.18;1643354;87;21081;-73
2022/05/03 12:00:13;;;;;;;0.55;0.40;;;;;;;21.37;25.87;99886.56;1633454;86;21057;-72
2022/05/03 12:02:42;;;;;;;0.98;0.45;;;;;;;21.32;25.43;99879.77;1632472;86;21593;-73
2022/05/03 12:05:17;;;;;;;3.08;0.47;;;;;;;21.28;25.66;99880.05;1638950;86;21034;-73
2022/05/03 12:07:50;;;;;;;2.10;0.42;;;;;;;21.19;25.47;99883.31;1649414;86;21172;-73
2022/05/03 12:10:30;;;;;;;1.12;0.57;;;;;;;21.18;25.69;99875.44;1614931;86;21126;-73
2022/05/03 12:13:16;;;;;;;0.47;0.47;;;;;;;21.15;26.18;99879.52;1635962;87;21468;-74
2022/05/03 12:16:00;;;;;;;6.00;1.30;;;;;;;21.07;26.22;99877.32;1630481;86;21030;-73
2022/05/03 12:18:40;;;;;;;8.13;0.85;;;;;;;21.00;26.39;99872.18;1623277;86;21103;-73
2022/05/03 12:21:17;;;;;;;1.87;0.72;;;;;;;20.92;28.07;99875.40;1620115;86;21121;-73
2022/05/03 12:23:47;;;;;;;1.67;0.93;;;;;;;20.76;28.96;99869.70;1637349;86;21454;-74
2022/05/03 12:26:21;;;;;;;0.72;0.62;;;;;;;20.60;29.58;99875.59;1637096;86;21086;-71
2022/05/03 12:28:57;;;;;;;7.03;0.90;;;;;;;20.46;30.12;99870.39;1637044;86;21563;-73
2022/05/03 12:31:34;;;;;;;2.08;1.90;;;;;;;20.32;30.93;99877.62;1636791;86;21003;-74